Startpagina
METAR-TAF:

METAR-TAF

Vliegvelden :

Bluefields, Nicaragua

breedte: 12-00N, lengte: 083-46W, hoogte: 5 m

Actueel weer

Dit bericht is 44 minuten geleden gemaakt, om 12:00 UTC
Wind 4 kt uit het noorden
Temperatuur 23°C
Vochtigheid 94%
Druk 1013 hPa
Zicht: 4000 m
Gebroken wolken op 1600 ft
Verspreide wolken op 7000 ft
regen

METAR: MNBL 201200Z 36004KT 4000 RA BKN016 SCT070 23/22 Q1013

Tijdstip: 06:44 (12:44 UTC)

Verwachting

Dit bericht is 15 uur en het 19 minuten geleden gemaakt, om 21:25 UTC
Verwachting geldig van 20 om 00 UTC tot 20 om 24 UTC
Wind 4 kt uit het noordoosten
Zicht 10 km of meer
Verspreide wolken op 2000 ft
Verspreide wolken op 30000 ft
Tijdelijke
van 20 om 04 UTC tot 20 om 10 UTC
Wind 6 kt uit het noordnoordoosten
Zicht: 6000 m
Gebroken wolken op 1700 ft
Verspreide wolken op 7000 ft

TAF: MNBL 192125Z 2000/2024 05004KT 9999 SCT020 SCT300 TEMPO 2004/2010 02006KT 6000 DZ/RA BKN017 SCT070

Waarnemingen en weersverwachtingen van meer dan 4000 vliegvelden (METAR en TAF).

De beschikbare stations zijn de gele en rode punten op de kaart.

Ga met uw muis naar het station om de naam te zien.

Klik dan om waarnemingen en weersverwachtingen te zien.

kaart wijzigen: klik op de groene knoppen met een zwart kruis om in te zoomen, op de groene knop met een streepje om uit te zoomen of op de groene pijlen voor aangrenzende kaarten.


METAR-TAF: